Time;durP1;ratioP1;P1;durP2;ratioP2;P2;SDS_P1;SDS_P2;PMS_P1;PMS_P2;Temp;Humidity;BMP_temperature;BMP_pressure;BME280_temperature;BME280_humidity;BME280_pressure;Samples;Min_cycle;Max_cycle;Signal;HPM_P1;HPM_P2
2020/12/15 00:02:10;;;;;;;2.47;1.30;;;11.00;99.90;;;;;;6181687;23;20181;-80
2020/12/15 00:04:36;;;;;;;2.53;1.60;;;10.90;99.90;;;;;;6189937;23;20169;-81
2020/12/15 00:07:02;;;;;;;4.03;1.57;;;10.90;99.90;;;;;;6212116;23;21081;-81
2020/12/15 00:09:29;;;;;;;2.00;1.70;;;10.80;99.90;;;;;;6211475;23;20145;-81
2020/12/15 00:11:56;;;;;;;2.50;1.75;;;10.80;99.90;;;;;;6211756;23;20145;-81
2020/12/15 00:14:22;;;;;;;3.50;2.63;;;10.70;99.90;;;;;;6160458;23;20176;-81
2020/12/15 00:16:48;;;;;;;3.20;2.17;;;10.60;99.90;;;;;;6185158;23;20195;-82
2020/12/15 00:19:13;;;;;;;2.83;1.73;;;10.50;99.90;;;;;;6184778;23;20532;-81
2020/12/15 00:21:43;;;;;;;2.30;1.50;;;10.40;99.90;;;;;;6187045;23;21155;-81
2020/12/15 00:24:09;;;;;;;2.63;1.83;;;10.20;99.90;;;;;;6213994;23;20248;-80
2020/12/15 00:26:35;;;;;;;2.25;1.52;;;10.20;99.90;;;;;;6211784;23;20152;-81
2020/12/15 00:29:01;;;;;;;2.70;1.40;;;10.00;99.90;;;;;;6184787;23;20145;-80
2020/12/15 00:31:34;;;;;;;3.57;1.93;;;9.90;99.90;;;;;;6184968;23;20236;-80
2020/12/15 00:34:00;;;;;;;2.97;1.80;;;9.80;99.90;;;;;;6211721;23;20572;-80
2020/12/15 00:36:25;;;;;;;2.40;1.73;;;9.70;99.90;;;;;;6211619;23;20180;-80
2020/12/15 00:38:51;;;;;;;2.20;1.37;;;9.60;99.90;;;;;;6184583;23;20710;-80
2020/12/15 00:41:17;;;;;;;2.60;1.97;;;9.60;99.90;;;;;;6185085;23;20583;-79
2020/12/15 00:43:43;;;;;;;2.90;1.93;;;9.50;99.90;;;;;;6211599;23;21359;-80
2020/12/15 00:46:18;;;;;;;2.47;1.55;;;9.40;99.90;;;;;;6213535;23;20552;-80
2020/12/15 00:48:47;;;;;;;2.85;1.80;;;9.30;99.90;;;;;;6213587;23;20153;-80
2020/12/15 00:51:17;;;;;;;3.35;2.10;;;9.30;99.90;;;;;;6187313;23;20141;-80
2020/12/15 00:53:45;;;;;;;5.10;2.55;;;9.20;99.90;;;;;;6213967;23;20213;-80
2020/12/15 00:56:14;;;;;;;1.80;1.40;;;9.10;99.90;;;;;;6187451;23;20553;-80
2020/12/15 00:58:41;;;;;;;2.15;1.33;;;9.10;99.90;;;;;;6213968;23;20173;-81
2020/12/15 01:01:08;;;;;;;3.30;1.95;;;9.10;99.90;;;;;;6190973;23;20152;-79
2020/12/15 01:03:35;;;;;;;2.67;1.80;;;9.10;99.90;;;;;;6187329;23;20525;-80
2020/12/15 01:06:01;;;;;;;3.10;2.15;;;9.00;99.90;;;;;;6213863;23;20183;-80
2020/12/15 01:08:28;;;;;;;2.20;1.88;;;9.00;99.90;;;;;;6186442;23;20586;-79
2020/12/15 01:10:54;;;;;;;2.57;2.10;;;9.00;99.90;;;;;;6186701;23;20168;-80
2020/12/15 01:13:21;;;;;;;4.63;2.15;;;9.00;99.90;;;;;;6213440;23;20598;-80
2020/12/15 01:15:49;;;;;;;2.63;2.42;;;9.00;99.90;;;;;;6161901;23;20562;-80
2020/12/15 01:18:17;;;;;;;4.28;1.85;;;9.00;99.90;;;;;;6186410;23;20172;-80
2020/12/15 01:20:43;;;;;;;2.70;2.40;;;9.00;99.90;;;;;;6213099;23;20149;-79
2020/12/15 01:23:09;;;;;;;2.53;2.33;;;9.00;99.90;;;;;;6186813;23;20539;-79
2020/12/15 01:25:43;;;;;;;2.83;2.38;;;9.00;99.90;;;;;;6186798;23;20252;-79
2020/12/15 01:28:11;;;;;;;2.78;2.10;;;9.00;99.90;;;;;;6212534;23;20185;-78
2020/12/15 01:30:37;;;;;;;3.78;2.45;;;9.00;99.90;;;;;;6187123;23;20162;-79
2020/12/15 01:33:22;;;;;;;3.63;1.88;;;8.90;99.90;;;;;;6213371;23;20203;-79
2020/12/15 01:36:06;;;;;;;3.90;2.72;;;8.90;99.90;;;;;;6213082;23;20165;-78
2020/12/15 01:38:42;;;;;;;3.20;2.28;;;8.90;99.90;;;;;;6186285;23;20164;-79
2020/12/15 01:41:11;;;;;;;2.38;2.17;;;8.90;99.90;;;;;;6186118;23;20172;-79
2020/12/15 01:43:37;;;;;;;3.97;2.35;;;8.90;99.90;;;;;;6213059;23;20145;-79
2020/12/15 01:46:03;;;;;;;3.33;3.00;;;9.00;99.90;;;;;;6186899;23;20542;-78
2020/12/15 01:48:32;;;;;;;2.45;2.00;;;9.00;99.90;;;;;;6186321;23;20176;-79
2020/12/15 01:51:00;;;;;;;1.92;1.60;;;9.00;99.90;;;;;;6162438;23;20152;-78
2020/12/15 01:53:30;;;;;;;3.92;3.05;;;9.00;99.90;;;;;;6186825;23;20150;-79
2020/12/15 01:55:58;;;;;;;2.80;2.40;;;8.90;99.90;;;;;;6161727;23;20177;-79
2020/12/15 01:58:24;;;;;;;3.77;3.27;;;8.90;99.90;;;;;;6185519;23;20484;-79
2020/12/15 02:01:01;;;;;;;3.30;2.75;;;8.90;99.90;;;;;;6186047;23;20501;-79
2020/12/15 02:03:28;;;;;;;3.90;3.50;;;8.90;99.90;;;;;;6186463;23;20502;-79
2020/12/15 02:06:12;;;;;;;5.05;2.28;;;8.90;99.90;;;;;;6213018;23;20518;-79
2020/12/15 02:08:59;;;;;;;4.20;2.92;;;8.90;99.90;;;;;;6211690;23;20157;-79
2020/12/15 02:11:28;;;;;;;4.45;2.80;;;8.90;99.90;;;;;;6186126;23;20169;-79
2020/12/15 02:13:55;;;;;;;2.78;2.55;;;8.90;99.90;;;;;;6192442;23;20560;-79
2020/12/15 02:16:20;;;;;;;2.65;1.85;;;8.90;99.90;;;;;;6186726;23;20224;-79
2020/12/15 02:18:51;;;;;;;3.92;3.22;;;9.00;99.90;;;;;;6185552;23;20153;-79
2020/12/15 02:21:17;;;;;;;3.47;3.13;;;9.00;99.90;;;;;;6185855;23;20156;-79
2020/12/15 02:23:51;;;;;;;4.70;2.80;;;9.00;99.90;;;;;;6186432;23;20491;-79
2020/12/15 02:26:27;;;;;;;2.67;2.47;;;9.00;99.90;;;;;;6186350;23;20133;-79
2020/12/15 02:28:53;;;;;;;5.13;2.40;;;9.00;99.90;;;;;;6185372;23;20161;-79
2020/12/15 02:31:20;;;;;;;3.08;2.63;;;9.00;99.90;;;;;;6185793;23;21092;-79
2020/12/15 02:33:47;;;;;;;4.65;2.80;;;9.00;99.90;;;;;;6186256;23;20220;-80
2020/12/15 02:36:14;;;;;;;6.93;3.55;;;9.00;99.90;;;;;;6186130;23;20173;-79
2020/12/15 02:39:04;;;;;;;4.00;2.72;;;9.00;99.90;;;;;;6185387;23;20165;-79
2020/12/15 02:41:31;;;;;;;4.95;2.97;;;9.00;99.90;;;;;;6185560;23;20145;-80
2020/12/15 02:44:00;;;;;;;3.42;2.65;;;9.00;99.90;;;;;;6161767;23;20156;-79
2020/12/15 02:46:28;;;;;;;3.53;3.08;;;9.00;99.90;;;;;;6186169;23;20468;-79
2020/12/15 02:48:55;;;;;;;4.53;3.20;;;9.00;99.90;;;;;;6161037;23;20152;-79
2020/12/15 02:51:22;;;;;;;3.67;3.20;;;9.00;99.90;;;;;;6191876;23;20615;-78
2020/12/15 02:54:11;;;;;;;2.88;2.33;;;9.00;99.90;;;;;;6186194;23;20140;-79
2020/12/15 02:56:37;;;;;;;3.03;2.17;;;9.00;99.90;;;;;;6185793;23;20718;-79
2020/12/15 02:59:05;;;;;;;2.92;2.63;;;9.10;99.90;;;;;;6185296;23;20862;-79
2020/12/15 03:01:41;;;;;;;4.88;3.15;;;9.10;99.90;;;;;;6185596;23;20205;-79
2020/12/15 03:04:09;;;;;;;4.10;2.80;;;9.00;99.90;;;;;;6161212;23;20153;-79
2020/12/15 03:06:39;;;;;;;5.53;3.10;;;9.10;99.90;;;;;;6162523;23;20133;-80
2020/12/15 03:09:09;;;;;;;3.83;2.88;;;9.00;99.90;;;;;;6211564;23;20140;-80
2020/12/15 03:11:39;;;;;;;2.95;2.20;;;9.10;99.90;;;;;;6161534;23;20144;-81
2020/12/15 03:14:13;;;;;;;3.95;3.30;;;9.10;99.90;;;;;;6186071;23;20470;-82
2020/12/15 03:16:39;;;;;;;2.90;2.50;;;9.10;99.90;;;;;;6185919;23;20224;-81
2020/12/15 03:19:05;;;;;;;4.30;2.60;;;9.00;99.90;;;;;;6186725;23;20836;-81
2020/12/15 03:21:35;;;;;;;3.15;2.60;;;9.10;99.90;;;;;;6160688;23;20153;-81
2020/12/15 03:24:05;;;;;;;2.70;2.50;;;9.10;99.90;;;;;;6213320;23;20149;-81
2020/12/15 03:26:33;;;;;;;3.35;3.00;;;9.10;99.90;;;;;;6187148;23;20526;-80
2020/12/15 03:29:05;;;;;;;2.80;2.33;;;9.10;99.90;;;;;;6168821;23;20164;-80
2020/12/15 03:31:32;;;;;;;2.85;2.55;;;9.10;99.90;;;;;;6162595;23;20148;-81
2020/12/15 03:33:58;;;;;;;4.10;3.00;;;9.20;99.90;;;;;;6187159;23;20448;-81
2020/12/15 03:36:24;;;;;;;3.72;2.53;;;9.20;99.90;;;;;;6186478;23;20518;-82
2020/12/15 03:38:50;;;;;;;3.55;2.78;;;9.20;99.90;;;;;;6184981;23;20244;-82
2020/12/15 03:41:19;;;;;;;3.85;2.92;;;9.10;99.90;;;;;;6185076;23;20459;-82
2020/12/15 03:44:01;;;;;;;4.90;2.85;;;9.20;99.90;;;;;;6185735;23;20129;-82
2020/12/15 03:46:37;;;;;;;3.78;3.22;;;9.10;99.90;;;;;;6185814;23;20129;-82
2020/12/15 03:49:06;;;;;;;2.47;2.28;;;9.10;99.90;;;;;;6185293;23;20152;-82
2020/12/15 03:51:37;;;;;;;2.90;2.60;;;9.20;99.90;;;;;;6185793;23;20675;-81
2020/12/15 03:54:21;;;;;;;4.38;3.60;;;9.20;99.90;;;;;;6211628;23;20161;-80
2020/12/15 03:57:16;;;;;;;3.85;3.15;;;9.20;99.90;;;;;;6184728;23;20508;-81
2020/12/15 04:00:04;;;;;;;3.20;2.88;;;9.30;99.90;;;;;;6188845;23;20184;-82
2020/12/15 04:02:38;;;;;;;5.68;3.22;;;9.30;99.90;;;;;;6211792;23;20137;-82
2020/12/15 04:05:10;;;;;;;4.22;3.20;;;9.30;99.90;;;;;;6182975;23;20205;-82
2020/12/15 04:07:36;;;;;;;3.88;2.80;;;9.30;99.90;;;;;;6182338;23;20157;-82
2020/12/15 04:10:04;;;;;;;3.40;3.10;;;9.30;99.90;;;;;;6181535;23;20157;-82
2020/12/15 04:12:38;;;;;;;4.22;3.10;;;9.30;99.90;;;;;;6180616;23;20140;-82
2020/12/15 04:15:06;;;;;;;3.05;2.55;;;9.30;99.90;;;;;;6180724;23;20176;-82
2020/12/15 04:17:36;;;;;;;3.20;2.27;;;9.30;99.90;;;;;;6155052;23;20639;-82
2020/12/15 04:20:05;;;;;;;5.10;2.95;;;9.30;99.90;;;;;;6180187;23;20517;-82
2020/12/15 04:22:31;;;;;;;3.10;2.55;;;9.30;99.90;;;;;;6155416;23;20145;-82
2020/12/15 04:24:57;;;;;;;3.07;2.77;;;9.30;99.90;;;;;;6180138;23;20516;-82
2020/12/15 04:27:24;;;;;;;3.92;3.13;;;9.30;99.90;;;;;;6179849;23;20530;-82
2020/12/15 04:29:50;;;;;;;5.10;3.13;;;9.30;99.90;;;;;;6180624;23;20638;-82
2020/12/15 04:32:19;;;;;;;9.05;3.40;;;9.30;99.90;;;;;;6180818;23;20540;-80
2020/12/15 04:35:04;;;;;;;8.23;3.38;;;9.30;99.90;;;;;;6180628;23;20169;-82
2020/12/15 04:37:30;;;;;;;4.83;2.23;;;9.40;99.90;;;;;;6130551;23;20512;-82
2020/12/15 04:40:00;;;;;;;3.60;3.30;;;9.40;99.90;;;;;;6182783;23;20538;-81
2020/12/15 04:42:35;;;;;;;3.63;3.33;;;9.40;99.90;;;;;;6185086;23;20126;-81
2020/12/15 04:45:03;;;;;;;4.50;3.30;;;9.40;99.90;;;;;;6158135;23;20620;-82
2020/12/15 04:47:43;;;;;;;4.55;3.55;;;9.40;99.90;;;;;;6182738;23;20137;-82
2020/12/15 04:50:14;;;;;;;3.63;3.25;;;9.40;99.90;;;;;;6180979;23;20723;-82
2020/12/15 04:52:58;;;;;;;4.70;3.30;;;9.40;99.90;;;;;;6180444;23;20213;-81
2020/12/15 04:55:48;;;;;;;2.45;2.25;;;9.40;99.90;;;;;;6185641;23;20166;-81
2020/12/15 04:58:19;;;;;;;4.95;3.58;;;9.40;99.90;;;;;;6183477;23;20177;-81
2020/12/15 05:00:46;;;;;;;3.45;3.15;;;9.50;99.90;;;;;;6182629;23;20205;-81
2020/12/15 05:03:47;;;;;;;4.03;3.22;;;9.50;99.90;;;;;;6181601;23;20157;-81
2020/12/15 05:06:15;;;;;;;3.35;2.83;;;9.50;99.90;;;;;;6180120;23;20257;-81
2020/12/15 05:08:47;;;;;;;5.10;3.35;;;9.60;99.90;;;;;;6179769;23;20146;-82
2020/12/15 05:11:14;;;;;;;4.10;2.60;;;9.60;99.90;;;;;;6180496;23;20138;-82
2020/12/15 05:14:04;;;;;;;4.45;3.50;;;9.60;99.90;;;;;;6180039;23;20514;-82
2020/12/15 05:16:38;;;;;;;4.40;3.90;;;9.60;99.90;;;;;;6179900;23;20173;-82
2020/12/15 05:19:21;;;;;;;4.40;2.95;;;9.60;99.90;;;;;;6188666;23;20193;-82
2020/12/15 05:21:59;;;;;;;7.50;3.80;;;9.60;99.90;;;;;;6184409;23;20142;-83
2020/12/15 05:24:32;;;;;;;3.17;2.88;;;9.60;99.90;;;;;;6179915;23;20591;-82
2020/12/15 05:27:01;;;;;;;3.00;2.70;;;9.60;99.90;;;;;;6155886;23;20149;-81
2020/12/15 05:29:36;;;;;;;4.15;3.25;;;9.60;99.90;;;;;;6181539;23;20126;-81
2020/12/15 05:32:16;;;;;;;4.70;3.80;;;9.60;99.90;;;;;;6181913;23;20130;-81
2020/12/15 05:35:09;;;;;;;4.63;4.15;;;9.60;99.90;;;;;;6182382;23;20170;-81
2020/12/15 05:37:57;;;;;;;5.90;4.30;;;9.60;99.90;;;;;;6183206;23;20499;-80
2020/12/15 05:40:53;;;;;;;5.30;4.45;;;9.60;99.90;;;;;;6183725;23;20280;-80
2020/12/15 05:43:39;;;;;;;4.03;3.72;;;9.60;99.90;;;;;;6159155;23;20129;-81
2020/12/15 05:46:08;;;;;;;5.78;4.20;;;9.60;99.90;;;;;;6132816;23;20228;-81
2020/12/15 05:48:37;;;;;;;6.30;4.60;;;9.60;99.90;;;;;;6181375;23;20204;-81
2020/12/15 05:51:03;;;;;;;5.45;4.30;;;9.60;99.90;;;;;;6181625;23;20233;-81
2020/12/15 05:53:29;;;;;;;7.90;4.60;;;9.60;99.90;;;;;;6183469;23;20150;-80
2020/12/15 05:55:55;;;;;;;7.03;4.10;;;9.60;99.90;;;;;;6183490;23;20739;-80
2020/12/15 05:58:21;;;;;;;5.70;4.05;;;9.60;99.90;;;;;;6183171;23;20217;-81
2020/12/15 06:00:47;;;;;;;4.40;4.00;;;9.60;99.90;;;;;;6184251;23;20701;-80
2020/12/15 06:03:13;;;;;;;6.30;4.77;;;9.70;99.90;;;;;;6183288;23;20173;-80
2020/12/15 06:05:38;;;;;;;4.83;4.33;;;9.60;99.90;;;;;;6203620;23;20227;-80
2020/12/15 06:08:06;;;;;;;4.37;3.37;;;9.60;99.90;;;;;;6185863;23;20168;-80
2020/12/15 06:10:33;;;;;;;5.38;4.72;;;9.70;99.90;;;;;;6212836;23;20880;-80
2020/12/15 06:13:00;;;;;;;4.32;3.92;;;9.70;99.90;;;;;;6161838;23;20848;-80
2020/12/15 06:15:27;;;;;;;5.55;4.10;;;9.70;99.90;;;;;;6212964;23;20548;-80
2020/12/15 06:17:56;;;;;;;7.85;5.88;;;9.70;99.90;;;;;;6212574;23;20177;-79
2020/12/15 06:20:24;;;;;;;4.47;4.00;;;9.70;99.90;;;;;;6212435;23;20145;-80
2020/12/15 06:22:54;;;;;;;5.75;4.93;;;9.70;99.90;;;;;;6212921;23;20145;-80
2020/12/15 06:25:32;;;;;;;5.35;4.70;;;9.70;99.90;;;;;;6185888;23;20172;-80
2020/12/15 06:28:07;;;;;;;6.32;5.68;;;9.70;99.90;;;;;;6212040;23;20168;-80
2020/12/15 06:30:35;;;;;;;6.05;4.50;;;9.70;99.90;;;;;;6212083;23;20790;-80
2020/12/15 06:33:03;;;;;;;6.45;5.85;;;9.70;99.90;;;;;;6212334;23;20142;-81
2020/12/15 06:35:29;;;;;;;6.05;5.15;;;9.60;99.90;;;;;;6216335;23;20165;-81
2020/12/15 06:37:55;;;;;;;6.80;5.93;;;9.60;99.90;;;;;;6212148;23;20184;-80
2020/12/15 06:40:20;;;;;;;5.93;5.30;;;9.70;99.90;;;;;;6212373;23;20587;-80
2020/12/15 06:42:51;;;;;;;5.47;4.97;;;9.70;99.90;;;;;;6212591;23;20525;-80
2020/12/15 06:45:22;;;;;;;6.78;4.63;;;9.70;99.90;;;;;;6212484;23;20650;-79
2020/12/15 06:48:02;;;;;;;8.40;6.20;;;9.80;99.90;;;;;;6211996;23;20204;-79
2020/12/15 06:50:39;;;;;;;6.20;5.60;;;9.70;99.90;;;;;;6211845;23;20133;-79
2020/12/15 06:53:09;;;;;;;6.07;5.13;;;9.80;99.90;;;;;;6211490;23;20164;-80
2020/12/15 06:55:35;;;;;;;7.60;6.60;;;9.80;99.90;;;;;;6212563;23;20195;-79
2020/12/15 06:58:02;;;;;;;5.17;4.63;;;9.80;99.90;;;;;;6187236;23;20161;-80
2020/12/15 07:00:42;;;;;;;5.70;5.10;;;9.80;99.90;;;;;;6212304;23;20503;-80
2020/12/15 07:03:08;;;;;;;6.72;6.13;;;9.90;99.90;;;;;;6215466;23;20397;-79
2020/12/15 07:05:36;;;;;;;6.80;6.05;;;9.90;99.90;;;;;;6186233;23;20181;-79
2020/12/15 07:08:10;;;;;;;5.75;5.25;;;9.90;99.90;;;;;;6186009;23;20160;-79
2020/12/15 07:10:40;;;;;;;7.70;5.35;;;9.90;99.90;;;;;;6186772;23;20184;-79
2020/12/15 07:13:07;;;;;;;9.05;7.00;;;9.90;99.90;;;;;;6187328;23;20130;-78
2020/12/15 07:15:37;;;;;;;6.72;5.95;;;9.90;99.90;;;;;;6184944;23;20387;-79
2020/12/15 07:18:04;;;;;;;8.00;5.72;;;9.80;99.90;;;;;;6187145;23;20203;-79
2020/12/15 07:20:31;;;;;;;7.55;6.20;;;9.90;99.90;;;;;;6188006;23;20583;-80
2020/12/15 07:22:57;;;;;;;8.00;7.20;;;9.90;99.90;;;;;;6188576;23;20142;-79
2020/12/15 07:25:23;;;;;;;8.60;6.27;;;9.90;99.90;;;;;;6184299;23;20168;-78
2020/12/15 07:27:49;;;;;;;6.28;5.75;;;9.90;99.90;;;;;;6181094;23;20610;-79
2020/12/15 07:30:18;;;;;;;6.63;6.00;;;9.90;99.90;;;;;;6181895;23;20185;-79
2020/12/15 07:32:46;;;;;;;10.23;6.50;;;9.90;99.90;;;;;;6182439;23;20150;-79
2020/12/15 07:35:17;;;;;;;8.23;5.93;;;9.90;99.90;;;;;;6185280;23;20166;-79
2020/12/15 07:37:45;;;;;;;10.32;8.48;;;10.00;99.90;;;;;;6166450;23;20565;-78
2020/12/15 07:40:17;;;;;;;8.38;7.50;;;9.90;99.90;;;;;;6190602;23;20142;-78
2020/12/15 07:42:59;;;;;;;7.50;6.80;;;9.90;99.90;;;;;;6187064;23;20134;-78
2020/12/15 07:45:28;;;;;;;7.47;6.28;;;9.90;99.90;;;;;;6186338;23;20189;-79
2020/12/15 07:47:55;;;;;;;7.28;6.57;;;10.00;99.90;;;;;;6180853;23;20173;-79
2020/12/15 07:50:26;;;;;;;6.25;5.35;;;10.00;99.90;;;;;;6187531;23;20153;-79
2020/12/15 07:52:53;;;;;;;8.90;7.60;;;10.00;99.90;;;;;;6180244;23;20585;-80
2020/12/15 07:55:19;;;;;;;7.35;6.30;;;10.00;99.90;;;;;;6180256;23;20240;-80
2020/12/15 07:57:45;;;;;;;9.50;8.52;;;10.10;99.90;;;;;;6180385;23;20169;-79
2020/12/15 08:00:16;;;;;;;8.30;7.50;;;10.10;99.90;;;;;;6180270;23;20156;-80
2020/12/15 08:02:43;;;;;;;6.90;6.25;;;10.10;99.90;;;;;;6158688;23;21127;-79
2020/12/15 08:05:11;;;;;;;9.90;8.90;;;10.10;99.90;;;;;;6197984;23;20219;-80
2020/12/15 08:07:48;;;;;;;9.05;8.15;;;10.10;99.90;;;;;;6214010;23;20207;-79
2020/12/15 08:10:21;;;;;;;8.43;7.63;;;10.10;99.90;;;;;;6185321;23;20133;-79
2020/12/15 08:12:47;;;;;;;9.13;7.97;;;10.10;99.90;;;;;;6211763;23;20133;-79
2020/12/15 08:15:13;;;;;;;8.23;7.40;;;10.10;99.90;;;;;;6160505;23;20172;-79
2020/12/15 08:17:40;;;;;;;10.55;9.55;;;10.10;99.90;;;;;;6184965;23;20568;-79
2020/12/15 08:20:07;;;;;;;10.85;9.75;;;10.10;99.90;;;;;;6185475;23;20153;-79
2020/12/15 08:22:38;;;;;;;11.20;10.10;;;10.00;99.90;;;;;;6212194;23;20152;-79
2020/12/15 08:25:08;;;;;;;8.27;7.40;;;10.00;99.90;;;;;;6186085;23;20235;-79
2020/12/15 08:27:35;;;;;;;9.18;8.27;;;10.10;99.90;;;;;;6219026;23;20145;-78
2020/12/15 08:30:12;;;;;;;7.70;7.00;;;10.00;99.90;;;;;;6213175;23;20149;-78
2020/12/15 08:32:43;;;;;;;9.13;7.75;;;10.10;99.90;;;;;;6185226;23;20172;-78
2020/12/15 08:35:09;;;;;;;10.05;8.45;;;10.10;99.90;;;;;;6160927;23;20623;-79
2020/12/15 08:37:37;;;;;;;10.47;9.40;;;10.10;99.90;;;;;;6211460;23;20180;-78
2020/12/15 08:40:07;;;;;;;9.57;7.93;;;10.10;99.90;;;;;;6213695;23;20520;-79
2020/12/15 08:42:33;;;;;;;9.45;7.97;;;10.10;99.90;;;;;;6213628;23;20145;-78
2020/12/15 08:45:11;;;;;;;11.68;9.40;;;10.10;99.90;;;;;;6211737;23;20197;-79
2020/12/15 08:47:47;;;;;;;11.38;10.18;;;10.20;99.90;;;;;;6211095;23;20562;-78
2020/12/15 08:50:15;;;;;;;8.45;7.75;;;10.20;99.90;;;;;;6185023;23;20136;-78
2020/12/15 08:52:43;;;;;;;8.63;7.82;;;10.20;99.90;;;;;;6159950;23;20153;-78
2020/12/15 08:55:09;;;;;;;11.20;9.43;;;10.20;99.90;;;;;;6211787;23;20651;-78
2020/12/15 08:57:35;;;;;;;10.60;9.50;;;10.20;99.90;;;;;;6211396;23;20169;-78
2020/12/15 09:00:28;;;;;;;12.20;10.00;;;10.20;99.90;;;;;;6211212;23;20308;-78
2020/12/15 09:03:04;;;;;;;11.30;9.15;;;10.10;99.90;;;;;;6207656;23;20552;-77
2020/12/15 09:05:31;;;;;;;9.48;8.55;;;10.20;99.90;;;;;;6156640;23;20268;-76
2020/12/15 09:08:05;;;;;;;10.23;8.93;;;10.20;99.90;;;;;;6182849;23;20173;-76
2020/12/15 09:10:31;;;;;;;10.88;9.77;;;10.20;99.90;;;;;;6182393;23;21106;-76
2020/12/15 09:12:57;;;;;;;9.80;8.80;;;10.20;99.90;;;;;;6183077;23;20181;-76
2020/12/15 09:15:23;;;;;;;8.20;7.40;;;10.20;99.90;;;;;;6183168;23;20264;-76
2020/12/15 09:17:49;;;;;;;10.10;9.10;;;10.30;99.90;;;;;;6182624;23;20201;-76
2020/12/15 09:20:26;;;;;;;9.23;8.10;;;10.30;99.90;;;;;;6182380;23;20177;-77
2020/12/15 09:22:53;;;;;;;8.93;8.02;;;10.30;99.90;;;;;;6182933;23;20501;-76
2020/12/15 09:25:19;;;;;;;9.93;9.02;;;10.30;99.90;;;;;;6182858;23;20261;-77
2020/12/15 09:27:48;;;;;;;9.73;8.75;;;10.40;99.90;;;;;;6182257;23;20150;-76
2020/12/15 09:30:18;;;;;;;8.65;7.93;;;10.40;99.90;;;;;;6182460;23;20146;-77
2020/12/15 09:32:44;;;;;;;9.23;8.32;;;10.40;99.90;;;;;;6182889;23;20236;-76
2020/12/15 09:35:11;;;;;;;9.20;7.40;;;10.50;99.90;;;;;;6181190;23;20204;-77
2020/12/15 09:37:41;;;;;;;7.47;6.72;;;10.50;99.90;;;;;;6182497;23;20185;-77
2020/12/15 09:40:11;;;;;;;10.75;9.65;;;10.50;99.90;;;;;;6184627;23;20518;-76
2020/12/15 09:42:38;;;;;;;10.27;9.27;;;10.50;99.90;;;;;;6184986;23;20210;-77
2020/12/15 09:45:07;;;;;;;9.57;8.60;;;10.50;99.90;;;;;;6182619;23;20165;-77
2020/12/15 09:47:33;;;;;;;8.50;7.65;;;10.60;99.90;;;;;;6181891;23;20154;-76
2020/12/15 09:50:01;;;;;;;8.20;7.40;;;10.60;99.90;;;;;;6182845;23;20228;-77
2020/12/15 09:52:27;;;;;;;8.32;7.47;;;10.60;99.90;;;;;;6182325;23;20149;-76
2020/12/15 09:54:53;;;;;;;7.60;6.90;;;10.70;99.90;;;;;;6182739;23;20256;-77
2020/12/15 09:57:19;;;;;;;8.47;6.83;;;10.70;99.90;;;;;;6181831;23;20219;-76
2020/12/15 09:59:45;;;;;;;14.37;8.83;;;10.70;99.90;;;;;;6182482;23;20580;-77
2020/12/15 10:02:10;;;;;;;7.20;6.50;;;10.70;99.90;;;;;;6182311;23;20167;-77
2020/12/15 10:04:36;;;;;;;9.50;6.97;;;10.70;99.90;;;;;;6190488;23;20615;-76
2020/12/15 10:07:02;;;;;;;10.87;8.90;;;10.70;99.90;;;;;;6161181;23;20504;-77
2020/12/15 10:09:28;;;;;;;7.93;7.20;;;10.80;99.90;;;;;;6211920;23;20145;-77
2020/12/15 10:11:54;;;;;;;12.83;8.00;;;10.80;99.90;;;;;;6212445;23;20623;-76
2020/12/15 10:14:20;;;;;;;8.17;7.37;;;10.80;99.90;;;;;;6212362;23;20169;-77
2020/12/15 10:16:45;;;;;;;11.00;8.27;;;10.80;99.90;;;;;;6185987;23;20586;-77
2020/12/15 10:19:11;;;;;;;8.83;7.47;;;10.80;99.90;;;;;;6214368;23;20196;-77
2020/12/15 10:21:37;;;;;;;9.50;8.43;;;10.80;99.90;;;;;;6212619;23;20145;-77
2020/12/15 10:24:03;;;;;;;8.30;7.50;;;10.80;99.90;;;;;;6212084;23;20531;-77
2020/12/15 10:26:30;;;;;;;8.90;7.30;;;10.80;99.90;;;;;;6212063;23;20603;-77
2020/12/15 10:28:56;;;;;;;9.13;8.27;;;10.80;99.90;;;;;;6160776;23;20152;-76
2020/12/15 10:31:22;;;;;;;8.82;7.82;;;10.80;99.90;;;;;;6186052;23;20150;-77
2020/12/15 10:33:48;;;;;;;9.45;8.52;;;10.90;99.90;;;;;;6212512;23;20160;-77
2020/12/15 10:36:16;;;;;;;7.28;6.60;;;10.80;99.90;;;;;;6212714;23;20774;-76
2020/12/15 10:38:43;;;;;;;8.80;7.85;;;10.90;99.90;;;;;;6185017;23;20185;-77
2020/12/15 10:41:09;;;;;;;5.95;5.45;;;11.00;99.90;;;;;;6212116;23;20149;-77
2020/12/15 10:43:35;;;;;;;11.23;7.90;;;11.00;99.90;;;;;;6212009;23;20152;-77
2020/12/15 10:46:01;;;;;;;7.75;7.03;;;11.00;99.90;;;;;;6185795;23;20162;-77
2020/12/15 10:48:27;;;;;;;10.93;8.50;;;11.10;99.90;;;;;;6211843;23;20158;-77
2020/12/15 10:50:53;;;;;;;7.90;7.10;;;11.10;99.90;;;;;;6185437;23;20252;-77
2020/12/15 10:53:19;;;;;;;9.33;8.30;;;11.10;99.90;;;;;;6212257;23;20535;-76
2020/12/15 10:55:49;;;;;;;7.43;6.60;;;11.10;99.90;;;;;;6215114;23;20571;-76
2020/12/15 10:58:16;;;;;;;8.07;7.00;;;11.10;99.90;;;;;;6211382;23;20564;-76
2020/12/15 11:00:41;;;;;;;7.05;6.45;;;11.20;99.90;;;;;;6211719;23;20132;-76
2020/12/15 11:03:07;;;;;;;10.00;6.63;;;11.20;99.90;;;;;;6185324;23;20141;-76
2020/12/15 11:05:33;;;;;;;7.90;6.40;;;11.30;99.90;;;;;;6211957;23;20272;-76
2020/12/15 11:07:59;;;;;;;7.23;6.53;;;11.30;99.90;;;;;;6211703;23;21042;-77
2020/12/15 11:10:25;;;;;;;9.43;7.53;;;11.20;99.90;;;;;;6210868;23;20548;-77
2020/12/15 11:12:51;;;;;;;7.63;6.90;;;11.20;99.90;;;;;;6210540;23;20150;-77
2020/12/15 11:15:17;;;;;;;8.55;7.65;;;11.20;99.90;;;;;;6210721;23;20671;-78
2020/12/15 11:17:43;;;;;;;8.23;7.43;;;11.20;99.90;;;;;;6159328;23;20623;-78
2020/12/15 11:20:08;;;;;;;8.70;7.80;;;11.20;99.90;;;;;;6210991;23;20229;-77
2020/12/15 11:22:34;;;;;;;11.40;8.70;;;11.20;99.90;;;;;;6160199;23;20214;-78
2020/12/15 11:25:00;;;;;;;11.10;9.13;;;11.20;99.90;;;;;;6211618;23;20558;-78
2020/12/15 11:27:28;;;;;;;9.80;8.77;;;11.20;99.90;;;;;;6184745;23;20539;-77
2020/12/15 11:29:54;;;;;;;10.37;9.27;;;11.20;99.90;;;;;;6211387;23;20212;-77
2020/12/15 11:32:19;;;;;;;11.37;8.93;;;11.20;99.90;;;;;;6184876;23;21116;-78
2020/12/15 11:34:45;;;;;;;8.90;8.10;;;11.20;99.90;;;;;;6210978;23;21078;-78
2020/12/15 11:37:12;;;;;;;11.23;8.23;;;11.20;99.90;;;;;;6212594;23;20588;-77
2020/12/15 11:39:39;;;;;;;9.68;8.13;;;11.20;99.90;;;;;;6212186;23;20845;-76
2020/12/15 11:42:10;;;;;;;7.50;6.63;;;11.20;99.90;;;;;;6211697;23;20204;-77
2020/12/15 11:44:37;;;;;;;10.38;8.43;;;11.20;99.90;;;;;;6184553;23;20165;-77
2020/12/15 11:47:05;;;;;;;7.20;6.50;;;11.20;99.90;;;;;;6210927;23;20145;-76
2020/12/15 11:49:32;;;;;;;7.45;6.75;;;11.20;99.90;;;;;;6159391;23;20142;-77
2020/12/15 11:51:57;;;;;;;8.13;6.72;;;11.30;99.90;;;;;;6184274;23;20220;-77
2020/12/15 11:54:24;;;;;;;6.80;5.60;;;11.30;99.90;;;;;;6183912;23;20189;-76
2020/12/15 11:56:50;;;;;;;8.02;7.22;;;11.30;99.90;;;;;;6211000;23;20852;-77
2020/12/15 11:59:17;;;;;;;6.70;6.00;;;11.30;99.90;;;;;;6183916;23;20267;-77
2020/12/15 12:01:44;;;;;;;8.50;7.70;;;11.20;99.90;;;;;;6210741;23;20145;-77
2020/12/15 12:04:09;;;;;;;6.88;6.28;;;11.20;99.90;;;;;;6210960;23;20145;-77
2020/12/15 12:06:36;;;;;;;8.03;7.10;;;11.20;99.90;;;;;;6184463;23;20156;-77
2020/12/15 12:09:03;;;;;;;10.63;7.05;;;11.20;99.90;;;;;;6210344;23;20145;-77
2020/12/15 12:11:31;;;;;;;7.80;7.13;;;11.20;99.90;;;;;;6210933;23;20238;-77
2020/12/15 12:13:57;;;;;;;7.23;6.60;;;11.20;99.90;;;;;;6160179;23;20149;-76
2020/12/15 12:16:23;;;;;;;7.70;6.95;;;11.10;99.90;;;;;;6211425;23;20567;-76
2020/12/15 12:18:48;;;;;;;11.53;8.00;;;11.10;99.90;;;;;;6159585;23;20177;-76
2020/12/15 12:21:14;;;;;;;7.07;6.47;;;11.10;99.90;;;;;;6211143;23;20524;-77
2020/12/15 12:23:41;;;;;;;6.77;6.17;;;11.20;99.90;;;;;;6185062;23;20153;-78
2020/12/15 12:26:07;;;;;;;7.25;6.50;;;11.20;99.90;;;;;;6211231;23;20500;-77
2020/12/15 12:28:33;;;;;;;7.80;5.80;;;11.20;99.90;;;;;;6184147;23;20145;-77
2020/12/15 12:30:59;;;;;;;7.40;6.70;;;11.30;99.90;;;;;;6184422;23;20564;-77
2020/12/15 12:33:25;;;;;;;7.37;6.13;;;11.30;99.90;;;;;;6185413;23;20613;-77
2020/12/15 12:35:54;;;;;;;9.47;6.73;;;11.30;99.90;;;;;;6185280;23;20243;-79
2020/12/15 12:38:21;;;;;;;8.18;7.25;;;11.40;99.90;;;;;;6186556;23;20187;-76
2020/12/15 12:40:48;;;;;;;7.55;6.75;;;11.40;99.90;;;;;;6213811;23;20148;-76
2020/12/15 12:43:14;;;;;;;8.02;7.10;;;11.50;99.90;;;;;;6190045;23;20459;-78
2020/12/15 12:45:40;;;;;;;8.15;7.35;;;11.50;99.90;;;;;;6215942;23;20596;-77
2020/12/15 12:48:10;;;;;;;8.07;7.07;;;11.50;99.90;;;;;;6189020;23;20146;-77
2020/12/15 12:50:36;;;;;;;8.43;6.53;;;11.50;99.90;;;;;;6186933;23;20531;-77
2020/12/15 12:53:02;;;;;;;8.15;6.68;;;11.50;99.90;;;;;;6213861;23;20155;-77
2020/12/15 12:55:28;;;;;;;8.20;7.40;;;11.50;99.90;;;;;;6186917;23;20161;-77
2020/12/15 12:57:55;;;;;;;7.90;6.90;;;11.60;99.90;;;;;;6186187;23;20231;-76
2020/12/15 13:00:21;;;;;;;7.18;6.47;;;11.60;99.90;;;;;;6186816;23;20575;-77
2020/12/15 13:02:47;;;;;;;7.57;6.72;;;11.50;99.90;;;;;;6215778;23;20279;-77